»·PEaware :: FDX1014 KSEA-KOAK

FDX1014 :: KSEA-KOAK

FLIGHT INFORMATION

Flight Status: Arrived
Operator:
Federal Express
More flights by this operator :: More flights under this callsign
Pilot: Jim M. (18055)
Aircraft: BOEING 777-200
(B772)
More flights by this aircraft type
Origin: KSEA Seattle-Tacoma Intl
United States
Destination: KOAK Metro Oakland Intl
United States
More flights between these airports :: More routes between these airports
Route: +HAROB6 HISKU Q5 HUPTU SPAMY WINDSR2
File this flight plan on PilotEdge
Remarks:
Altitude:
(Current/Filed)
35,000ft
Speed:
(Current/Filed)
450kts
Departed: 16-Feb-20 11:39 AM
Arrived: 16-Feb-20 01:16 PM
Distance/Time
Traveled:
584nm/1:37
Distance/Time
To Go:
Arrived

Flight Plot

Page will automatically refresh every two minutes.


Map Options




Map Legend


Flown Route
Filed Route
Departure Airport
Arrival Airport
Navaid (VOR, NDB)
Fix

Horizontal Profiles

Position Reports

Time Latitude Longitude Heading Altitude Ground
Speed
16-Feb-20 11:01 47.461053 -122.303687 180 446ft 0kts
16-Feb-20 11:02 47.461053 -122.303687 180 446ft 0kts
16-Feb-20 11:03 47.461053 -122.303687 180 446ft 0kts
16-Feb-20 11:04 47.461053 -122.303687 180 446ft 0kts
16-Feb-20 11:05 47.461053 -122.303687 180 446ft 0kts
16-Feb-20 11:06 47.461053 -122.303687 180 446ft 0kts
16-Feb-20 11:07 47.461053 -122.303687 180 446ft 0kts
16-Feb-20 11:08 47.461053 -122.303687 180 446ft 0kts
16-Feb-20 11:09 47.461053 -122.303687 180 446ft 0kts
16-Feb-20 11:10 47.461053 -122.303687 180 446ft 0kts
16-Feb-20 11:11 47.461053 -122.303687 180 446ft 0kts
16-Feb-20 11:12 47.461053 -122.303687 180 446ft 0kts
16-Feb-20 11:13 47.461053 -122.303687 180 446ft 0kts
16-Feb-20 11:14 47.461053 -122.303687 180 446ft 0kts
16-Feb-20 11:15 47.461053 -122.303687 180 446ft 0kts
16-Feb-20 11:16 47.461053 -122.303687 180 446ft 0kts
16-Feb-20 11:17 47.461053 -122.303687 180 446ft 0kts
16-Feb-20 11:18 47.461053 -122.303687 180 446ft 0kts
16-Feb-20 11:19 47.461053 -122.303687 180 446ft 0kts
16-Feb-20 11:20 47.461053 -122.303687 180 446ft 0kts
16-Feb-20 11:21 47.461621 -122.303421 229 446ft 2kts
16-Feb-20 11:22 47.461767 -122.302838 269 446ft 0kts
16-Feb-20 11:23 47.461767 -122.302838 269 446ft 0kts
16-Feb-20 11:24 47.461767 -122.302839 269 446ft 0kts
16-Feb-20 11:26 47.461767 -122.302840 269 446ft 0kts
16-Feb-20 11:27 47.461767 -122.302841 269 446ft 0kts
16-Feb-20 11:28 47.461767 -122.302842 269 446ft 0kts
16-Feb-20 11:29 47.461796 -122.303394 272 446ft 0kts
16-Feb-20 11:30 47.461796 -122.303395 272 446ft 0kts
16-Feb-20 11:31 47.461796 -122.303395 272 446ft 0kts
16-Feb-20 11:32 47.461796 -122.303396 272 446ft 0kts
16-Feb-20 11:33 47.461797 -122.303397 272 446ft 0kts
16-Feb-20 11:34 47.461797 -122.303398 272 446ft 0kts
16-Feb-20 11:35 47.461886 -122.304792 290 446ft 6kts
16-Feb-20 11:36 47.462803 -122.306106 356 446ft 11kts
16-Feb-20 11:37 47.463078 -122.306117 358 446ft 1kts
16-Feb-20 11:38 47.463647 -122.307286 226 446ft 3kts
16-Feb-20 11:39 47.439222 -122.308250 180 1014ft 175kts
16-Feb-20 11:40 47.384895 -122.308690 182 3833ft 237kts
16-Feb-20 11:41 47.323528 -122.343807 246 7054ft 252kts
16-Feb-20 11:42 47.306646 -122.446064 272 10562ft 262kts
16-Feb-20 11:43 47.310473 -122.565342 274 13650ft 325kts
16-Feb-20 11:44 47.314197 -122.706329 274 18379ft 356kts
16-Feb-20 11:45 47.294464 -122.853862 254 22653ft 383kts
16-Feb-20 11:45 47.259309 -122.981074 253 25202ft 396kts
16-Feb-20 11:47 47.169115 -123.124024 224 28613ft 438kts
16-Feb-20 11:48 47.058550 -123.210033 199 30812ft 489kts
16-Feb-20 11:48 46.942096 -123.206771 184 32658ft 515kts
16-Feb-20 11:49 46.800816 -123.188271 185 34824ft 509kts
16-Feb-20 11:50 46.659506 -123.172363 185 35346ft 508kts
16-Feb-20 11:51 46.518790 -123.156885 186 35352ft 508kts
16-Feb-20 11:52 46.377948 -123.141524 186 35361ft 507kts
16-Feb-20 11:53 46.237220 -123.126267 186 35369ft 507kts
16-Feb-20 11:54 46.096074 -123.111049 186 35376ft 507kts
16-Feb-20 11:55 45.955605 -123.095953 187 35372ft 506kts
16-Feb-20 11:56 45.815398 -123.081013 187 35365ft 505kts
16-Feb-20 11:57 45.677120 -123.066327 187 35369ft 505kts
16-Feb-20 11:58 45.537013 -123.051521 187 35378ft 505kts
16-Feb-20 11:59 45.396822 -123.036779 187 35384ft 505kts
16-Feb-20 12:00 45.256308 -123.022077 187 35385ft 505kts
16-Feb-20 12:01 45.116481 -123.007519 187 35384ft 505kts
16-Feb-20 12:02 44.976195 -122.992984 187 35381ft 505kts
16-Feb-20 12:03 44.835904 -122.978520 188 35380ft 504kts
16-Feb-20 12:04 44.695764 -122.964099 188 35384ft 504kts
16-Feb-20 12:05 44.556059 -122.949868 188 35390ft 504kts
16-Feb-20 12:06 44.416731 -122.940108 192 35393ft 496kts
16-Feb-20 12:07 44.278359 -122.937180 191 35390ft 497kts
16-Feb-20 12:08 44.140247 -122.933115 191 35388ft 496kts
16-Feb-20 12:09 44.001997 -122.928893 192 35383ft 496kts
16-Feb-20 12:10 43.864464 -122.924721 191 35385ft 495kts
16-Feb-20 12:11 43.726777 -122.920561 191 35373ft 495kts
16-Feb-20 12:12 43.588895 -122.916419 191 35369ft 495kts
16-Feb-20 12:13 43.451314 -122.912300 191 35369ft 495kts
16-Feb-20 12:14 43.313432 -122.908189 191 35374ft 494kts
16-Feb-20 12:15 43.175778 -122.904108 191 35356ft 494kts
16-Feb-20 12:16 43.038332 -122.900050 191 35346ft 494kts
16-Feb-20 12:17 42.901256 -122.896020 190 35334ft 494kts
16-Feb-20 12:18 42.763485 -122.891975 190 35326ft 496kts
16-Feb-20 12:19 42.625695 -122.887964 190 35328ft 495kts
16-Feb-20 12:20 42.487730 -122.883993 190 35341ft 494kts
16-Feb-20 12:21 42.350372 -122.880055 190 35349ft 495kts
16-Feb-20 12:22 42.212752 -122.876126 190 35341ft 494kts
16-Feb-20 12:23 42.075093 -122.872173 190 35331ft 494kts
16-Feb-20 12:24 41.937483 -122.868290 189 35321ft 492kts
16-Feb-20 12:25 41.800695 -122.864399 189 35315ft 492kts
16-Feb-20 12:26 41.663910 -122.860550 189 35312ft 492kts
16-Feb-20 12:27 41.526787 -122.856701 188 35309ft 492kts
16-Feb-20 12:28 41.389969 -122.852894 188 35307ft 491kts
16-Feb-20 12:29 41.253089 -122.847113 186 35306ft 493kts
16-Feb-20 12:30 41.116438 -122.838377 186 35310ft 492kts
16-Feb-20 12:31 40.979923 -122.830211 186 35318ft 490kts
16-Feb-20 12:32 40.843826 -122.822091 186 35326ft 490kts
16-Feb-20 12:33 40.707850 -122.814059 186 35328ft 488kts
16-Feb-20 12:34 40.571689 -122.806055 186 35323ft 488kts
16-Feb-20 12:35 40.436692 -122.798150 186 35314ft 487kts
16-Feb-20 12:36 40.301430 -122.790263 186 35311ft 485kts
16-Feb-20 12:37 40.166744 -122.782441 185 35310ft 485kts
16-Feb-20 12:38 40.031669 -122.774626 185 34169ft 484kts
16-Feb-20 12:39 39.896790 -122.766861 185 32430ft 489kts
16-Feb-20 12:40 39.760002 -122.758979 184 30773ft 486kts
16-Feb-20 12:41 39.626903 -122.751385 184 29430ft 481kts
16-Feb-20 12:42 39.493654 -122.734987 173 27968ft 487kts
16-Feb-20 12:43 39.366515 -122.676046 164 26010ft 481kts
16-Feb-20 12:44 39.245511 -122.613890 165 24706ft 450kts
16-Feb-20 12:45 39.129851 -122.579974 183 23260ft 413kts
16-Feb-20 12:46 39.015877 -122.563739 178 21501ft 411kts
16-Feb-20 12:47 38.904335 -122.534332 176 19767ft 405kts
16-Feb-20 12:48 38.795214 -122.506961 176 18153ft 393kts
16-Feb-20 12:49 38.689254 -122.480610 176 16609ft 382kts
16-Feb-20 12:50 38.586124 -122.463431 180 15034ft 369kts
16-Feb-20 12:51 38.486173 -122.448815 179 14037ft 344kts
16-Feb-20 12:52 38.397146 -122.435335 180 13109ft 307kts
16-Feb-20 12:53 38.313118 -122.422618 179 11293ft 299kts
16-Feb-20 12:54 38.230625 -122.410101 177 9852ft 297kts
16-Feb-20 12:55 38.149064 -122.397583 175 8736ft 291kts
16-Feb-20 12:56 38.069582 -122.385434 175 7656ft 284kts
16-Feb-20 12:57 37.995891 -122.353994 147 6790ft 282kts
16-Feb-20 12:58 37.933016 -122.294770 142 6248ft 280kts
16-Feb-20 12:59 37.871091 -122.235711 143 5720ft 277kts
16-Feb-20 13:00 37.809676 -122.177415 143 5206ft 274kts
16-Feb-20 13:01 37.756761 -122.109596 127 4991ft 261kts
16-Feb-20 13:02 37.715282 -122.040927 127 4983ft 238kts
16-Feb-20 13:03 37.675268 -121.973580 125 4989ft 240kts
16-Feb-20 13:04 37.636572 -121.904823 124 4978ft 240kts
16-Feb-20 13:05 37.597862 -121.835968 124 4983ft 240kts
16-Feb-20 13:06 37.545702 -121.801038 206 4983ft 230kts
16-Feb-20 13:07 37.515435 -121.864166 277 4990ft 215kts
16-Feb-20 13:08 37.527528 -121.939358 282 4137ft 216kts
16-Feb-20 13:09 37.555787 -121.997485 310 4015ft 184kts
16-Feb-20 13:10 37.588732 -122.045543 309 3380ft 179kts
16-Feb-20 13:11 37.620198 -122.092511 308 2451ft 176kts
16-Feb-20 13:12 37.648757 -122.135256 308 1614ft 143kts
16-Feb-20 13:13 37.674046 -122.173126 308 858ft 144kts
16-Feb-20 13:14 37.700004 -122.212521 307 71ft 147kts
16-Feb-20 13:15 37.710110 -122.226324 346 19ft 0kts
16-Feb-20 13:16 37.712154 -122.225541 50 19ft 16kts
16-Feb-20 13:17 37.714096 -122.220752 45 19ft 12kts
16-Feb-20 13:18 37.716905 -122.219512 341 19ft 6kts
16-Feb-20 13:19 37.717620 -122.220113 316 19ft 0kts

Navigation Log

Ident Type
Flight plan parsing failed, navigation log unavailable